sensor_id;sensor_type;location;lat;lon;timestamp;P1;durP1;ratioP1;P2;durP2;ratioP2
14247;SDS011;7208;49.826;6.004;2023-02-23T00:00:14;30.80;;;19.27;;
14247;SDS011;7208;49.826;6.004;2023-02-23T00:02:52;29.73;;;18.03;;
14247;SDS011;7208;49.826;6.004;2023-02-23T00:05:20;29.73;;;18.40;;
14247;SDS011;7208;49.826;6.004;2023-02-23T00:07:46;34.73;;;18.77;;
14247;SDS011;7208;49.826;6.004;2023-02-23T00:10:13;27.70;;;17.23;;
14247;SDS011;7208;49.826;6.004;2023-02-23T00:12:42;28.47;;;17.10;;
14247;SDS011;7208;49.826;6.004;2023-02-23T00:15:09;36.13;;;18.37;;
14247;SDS011;7208;49.826;6.004;2023-02-23T00:17:35;24.33;;;16.97;;
14247;SDS011;7208;49.826;6.004;2023-02-23T00:20:03;33.10;;;19.07;;
14247;SDS011;7208;49.826;6.004;2023-02-23T00:22:32;29.53;;;18.07;;
14247;SDS011;7208;49.826;6.004;2023-02-23T00:24:58;25.50;;;15.87;;
14247;SDS011;7208;49.826;6.004;2023-02-23T00:27:24;31.67;;;18.90;;
14247;SDS011;7208;49.826;6.004;2023-02-23T00:29:51;28.30;;;16.57;;
14247;SDS011;7208;49.826;6.004;2023-02-23T00:32:17;29.47;;;15.70;;
14247;SDS011;7208;49.826;6.004;2023-02-23T00:34:46;28.57;;;16.47;;
14247;SDS011;7208;49.826;6.004;2023-02-23T00:37:16;23.87;;;14.77;;
14247;SDS011;7208;49.826;6.004;2023-02-23T00:39:42;25.20;;;16.37;;
14247;SDS011;7208;49.826;6.004;2023-02-23T00:42:09;29.00;;;17.30;;
14247;SDS011;7208;49.826;6.004;2023-02-23T00:44:37;27.67;;;17.13;;
14247;SDS011;7208;49.826;6.004;2023-02-23T00:47:04;28.10;;;16.83;;
14247;SDS011;7208;49.826;6.004;2023-02-23T00:49:31;27.83;;;17.17;;
14247;SDS011;7208;49.826;6.004;2023-02-23T00:51:57;26.90;;;16.07;;
14247;SDS011;7208;49.826;6.004;2023-02-23T00:54:23;27.27;;;16.57;;
14247;SDS011;7208;49.826;6.004;2023-02-23T00:56:50;28.50;;;15.10;;
14247;SDS011;7208;49.826;6.004;2023-02-23T00:59:16;24.73;;;14.93;;
14247;SDS011;7208;49.826;6.004;2023-02-23T01:01:43;28.80;;;15.43;;
14247;SDS011;7208;49.826;6.004;2023-02-23T01:04:09;21.10;;;14.63;;
14247;SDS011;7208;49.826;6.004;2023-02-23T01:06:36;25.17;;;14.13;;
14247;SDS011;7208;49.826;6.004;2023-02-23T01:09:05;24.07;;;14.07;;
14247;SDS011;7208;49.826;6.004;2023-02-23T01:11:32;25.70;;;14.33;;
14247;SDS011;7208;49.826;6.004;2023-02-23T01:13:59;21.30;;;14.57;;
14247;SDS011;7208;49.826;6.004;2023-02-23T01:16:27;22.73;;;14.77;;
14247;SDS011;7208;49.826;6.004;2023-02-23T01:18:53;21.63;;;13.37;;
14247;SDS011;7208;49.826;6.004;2023-02-23T01:21:21;22.80;;;13.87;;
14247;SDS011;7208;49.826;6.004;2023-02-23T01:23:48;25.67;;;14.43;;
14247;SDS011;7208;49.826;6.004;2023-02-23T01:26:15;41.33;;;24.77;;
14247;SDS011;7208;49.826;6.004;2023-02-23T01:28:43;31.03;;;18.10;;
14247;SDS011;7208;49.826;6.004;2023-02-23T01:31:09;35.27;;;17.83;;
14247;SDS011;7208;49.826;6.004;2023-02-23T01:33:35;26.93;;;15.90;;
14247;SDS011;7208;49.826;6.004;2023-02-23T01:36:01;23.70;;;15.17;;
14247;SDS011;7208;49.826;6.004;2023-02-23T01:38:27;25.20;;;15.50;;
14247;SDS011;7208;49.826;6.004;2023-02-23T01:40:53;23.63;;;13.77;;
14247;SDS011;7208;49.826;6.004;2023-02-23T01:43:20;20.00;;;14.27;;
14247;SDS011;7208;49.826;6.004;2023-02-23T01:45:50;23.40;;;14.70;;
14247;SDS011;7208;49.826;6.004;2023-02-23T01:48:17;18.53;;;13.60;;
14247;SDS011;7208;49.826;6.004;2023-02-23T01:53:14;21.13;;;13.80;;
14247;SDS011;7208;49.826;6.004;2023-02-23T01:55:41;23.30;;;14.33;;
14247;SDS011;7208;49.826;6.004;2023-02-23T01:58:08;25.57;;;14.10;;
14247;SDS011;7208;49.826;6.004;2023-02-23T02:00:43;22.47;;;13.47;;
14247;SDS011;7208;49.826;6.004;2023-02-23T02:03:12;22.20;;;13.67;;
14247;SDS011;7208;49.826;6.004;2023-02-23T02:05:39;16.10;;;11.90;;
14247;SDS011;7208;49.826;6.004;2023-02-23T02:08:06;21.17;;;14.90;;
14247;SDS011;7208;49.826;6.004;2023-02-23T02:10:34;18.77;;;13.07;;
14247;SDS011;7208;49.826;6.004;2023-02-23T02:13:04;25.03;;;13.83;;
14247;SDS011;7208;49.826;6.004;2023-02-23T02:15:32;22.23;;;13.53;;
14247;SDS011;7208;49.826;6.004;2023-02-23T02:39:11;22.83;;;13.83;;
14247;SDS011;7208;49.826;6.004;2023-02-23T02:47:07;18.93;;;13.57;;
14247;SDS011;7208;49.826;6.004;2023-02-23T02:52:36;21.33;;;13.47;;
14247;SDS011;7208;49.826;6.004;2023-02-23T02:55:22;23.47;;;15.43;;
14247;SDS011;7208;49.826;6.004;2023-02-23T02:57:48;22.30;;;14.37;;
14247;SDS011;7208;49.826;6.004;2023-02-23T03:00:16;20.00;;;13.93;;
14247;SDS011;7208;49.826;6.004;2023-02-23T03:03:01;21.90;;;14.23;;
14247;SDS011;7208;49.826;6.004;2023-02-23T03:05:50;17.47;;;13.40;;
14247;SDS011;7208;49.826;6.004;2023-02-23T03:11:20;20.13;;;12.97;;
14247;SDS011;7208;49.826;6.004;2023-02-23T03:19:38;25.30;;;14.70;;
14247;SDS011;7208;49.826;6.004;2023-02-23T03:22:31;22.57;;;14.10;;
14247;SDS011;7208;49.826;6.004;2023-02-23T03:28:12;23.53;;;13.50;;
14247;SDS011;7208;49.826;6.004;2023-02-23T03:31:02;24.40;;;14.90;;
14247;SDS011;7208;49.826;6.004;2023-02-23T03:36:36;23.13;;;14.73;;
14247;SDS011;7208;49.826;6.004;2023-02-23T03:42:09;26.13;;;16.57;;
14247;SDS011;7208;49.826;6.004;2023-02-23T03:44:54;24.87;;;14.93;;
14247;SDS011;7208;49.826;6.004;2023-02-23T03:47:40;28.00;;;15.73;;
14247;SDS011;7208;49.826;6.004;2023-02-23T03:50:40;24.20;;;15.10;;
14247;SDS011;7208;49.826;6.004;2023-02-23T03:53:27;19.83;;;13.43;;
14247;SDS011;7208;49.826;6.004;2023-02-23T03:56:15;20.63;;;13.83;;
14247;SDS011;7208;49.826;6.004;2023-02-23T03:59:02;24.57;;;15.67;;
14247;SDS011;7208;49.826;6.004;2023-02-23T04:01:47;22.63;;;15.07;;
14247;SDS011;7208;49.826;6.004;2023-02-23T04:04:35;25.33;;;16.00;;
14247;SDS011;7208;49.826;6.004;2023-02-23T04:07:20;27.93;;;16.97;;
14247;SDS011;7208;49.826;6.004;2023-02-23T04:10:05;26.03;;;17.40;;
14247;SDS011;7208;49.826;6.004;2023-02-23T04:12:54;28.47;;;16.13;;
14247;SDS011;7208;49.826;6.004;2023-02-23T04:15:50;33.80;;;17.73;;
14247;SDS011;7208;49.826;6.004;2023-02-23T04:18:20;34.70;;;18.00;;
14247;SDS011;7208;49.826;6.004;2023-02-23T04:20:46;29.13;;;17.47;;
14247;SDS011;7208;49.826;6.004;2023-02-23T04:23:12;41.53;;;19.57;;
14247;SDS011;7208;49.826;6.004;2023-02-23T04:25:38;50.17;;;19.63;;
14247;SDS011;7208;49.826;6.004;2023-02-23T04:28:04;51.43;;;19.10;;
14247;SDS011;7208;49.826;6.004;2023-02-23T04:30:31;68.67;;;22.07;;
14247;SDS011;7208;49.826;6.004;2023-02-23T04:32:57;72.70;;;20.43;;
14247;SDS011;7208;49.826;6.004;2023-02-23T04:35:23;95.73;;;22.23;;
14247;SDS011;7208;49.826;6.004;2023-02-23T04:37:51;86.33;;;19.27;;
14247;SDS011;7208;49.826;6.004;2023-02-23T04:40:17;123.57;;;23.13;;
14247;SDS011;7208;49.826;6.004;2023-02-23T04:42:43;157.02;;;35.72;;
14247;SDS011;7208;49.826;6.004;2023-02-23T04:45:16;289.67;;;32.93;;
14247;SDS011;7208;49.826;6.004;2023-02-23T04:47:42;179.27;;;29.27;;
14247;SDS011;7208;49.826;6.004;2023-02-23T04:50:08;196.83;;;27.00;;
14247;SDS011;7208;49.826;6.004;2023-02-23T04:52:35;144.03;;;23.97;;
14247;SDS011;7208;49.826;6.004;2023-02-23T04:55:02;183.30;;;26.40;;
14247;SDS011;7208;49.826;6.004;2023-02-23T04:57:28;111.40;;;22.07;;
14247;SDS011;7208;49.826;6.004;2023-02-23T04:59:54;149.97;;;23.00;;
14247;SDS011;7208;49.826;6.004;2023-02-23T05:02:20;68.53;;;20.50;;
14247;SDS011;7208;49.826;6.004;2023-02-23T05:04:46;83.83;;;21.57;;
14247;SDS011;7208;49.826;6.004;2023-02-23T05:07:12;101.87;;;21.87;;
14247;SDS011;7208;49.826;6.004;2023-02-23T05:09:38;90.57;;;19.93;;
14247;SDS011;7208;49.826;6.004;2023-02-23T05:12:04;96.27;;;19.73;;
14247;SDS011;7208;49.826;6.004;2023-02-23T05:14:30;55.10;;;17.73;;
14247;SDS011;7208;49.826;6.004;2023-02-23T05:16:56;55.10;;;17.20;;
14247;SDS011;7208;49.826;6.004;2023-02-23T05:19:22;157.32;;;30.38;;
14247;SDS011;7208;49.826;6.004;2023-02-23T05:21:48;81.17;;;21.20;;
14247;SDS011;7208;49.826;6.004;2023-02-23T05:24:15;74.80;;;21.87;;
14247;SDS011;7208;49.826;6.004;2023-02-23T05:26:41;191.27;;;26.57;;
14247;SDS011;7208;49.826;6.004;2023-02-23T05:29:09;127.03;;;23.93;;
14247;SDS011;7208;49.826;6.004;2023-02-23T05:31:35;77.07;;;19.07;;
14247;SDS011;7208;49.826;6.004;2023-02-23T05:34:01;147.77;;;20.20;;
14247;SDS011;7208;49.826;6.004;2023-02-23T05:36:27;263.53;;;28.10;;
14247;SDS011;7208;49.826;6.004;2023-02-23T05:38:53;84.60;;;19.07;;
14247;SDS011;7208;49.826;6.004;2023-02-23T05:41:20;118.17;;;18.87;;
14247;SDS011;7208;49.826;6.004;2023-02-23T05:43:46;330.20;;;27.93;;
14247;SDS011;7208;49.826;6.004;2023-02-23T05:46:17;269.23;;;23.63;;
14247;SDS011;7208;49.826;6.004;2023-02-23T05:48:44;227.20;;;24.80;;
14247;SDS011;7208;49.826;6.004;2023-02-23T05:51:11;255.80;;;25.23;;
14247;SDS011;7208;49.826;6.004;2023-02-23T05:53:38;206.23;;;23.67;;
14247;SDS011;7208;49.826;6.004;2023-02-23T05:56:04;46.87;;;18.60;;
14247;SDS011;7208;49.826;6.004;2023-02-23T05:58:31;153.97;;;21.63;;
14247;SDS011;7208;49.826;6.004;2023-02-23T06:00:57;151.87;;;21.87;;
14247;SDS011;7208;49.826;6.004;2023-02-23T06:03:23;147.30;;;21.70;;
14247;SDS011;7208;49.826;6.004;2023-02-23T06:05:49;166.40;;;21.70;;
14247;SDS011;7208;49.826;6.004;2023-02-23T06:08:15;86.47;;;19.73;;
14247;SDS011;7208;49.826;6.004;2023-02-23T06:10:41;216.40;;;22.97;;
14247;SDS011;7208;49.826;6.004;2023-02-23T06:13:07;176.70;;;20.30;;
14247;SDS011;7208;49.826;6.004;2023-02-23T06:15:34;192.43;;;22.50;;
14247;SDS011;7208;49.826;6.004;2023-02-23T06:18:01;146.20;;;18.97;;
14247;SDS011;7208;49.826;6.004;2023-02-23T06:20:27;176.27;;;22.07;;
14247;SDS011;7208;49.826;6.004;2023-02-23T06:22:53;187.70;;;22.67;;
14247;SDS011;7208;49.826;6.004;2023-02-23T06:25:19;215.53;;;21.43;;
14247;SDS011;7208;49.826;6.004;2023-02-23T06:27:45;171.23;;;19.53;;
14247;SDS011;7208;49.826;6.004;2023-02-23T06:30:11;116.80;;;18.30;;
14247;SDS011;7208;49.826;6.004;2023-02-23T06:32:38;71.67;;;17.27;;
14247;SDS011;7208;49.826;6.004;2023-02-23T06:35:04;83.63;;;17.77;;
14247;SDS011;7208;49.826;6.004;2023-02-23T06:37:32;55.70;;;17.30;;
14247;SDS011;7208;49.826;6.004;2023-02-23T06:39:58;49.67;;;16.63;;
14247;SDS011;7208;49.826;6.004;2023-02-23T06:42:24;70.00;;;18.60;;
14247;SDS011;7208;49.826;6.004;2023-02-23T06:44:50;54.97;;;17.90;;
14247;SDS011;7208;49.826;6.004;2023-02-23T06:47:16;60.83;;;18.27;;
14247;SDS011;7208;49.826;6.004;2023-02-23T06:49:42;99.90;;;19.67;;
14247;SDS011;7208;49.826;6.004;2023-02-23T06:52:08;77.47;;;19.03;;
14247;SDS011;7208;49.826;6.004;2023-02-23T06:54:37;67.20;;;18.70;;
14247;SDS011;7208;49.826;6.004;2023-02-23T06:57:04;80.67;;;18.83;;
14247;SDS011;7208;49.826;6.004;2023-02-23T06:59:30;84.57;;;20.50;;
14247;SDS011;7208;49.826;6.004;2023-02-23T07:01:56;102.00;;;19.30;;
14247;SDS011;7208;49.826;6.004;2023-02-23T07:04:22;128.40;;;21.13;;
14247;SDS011;7208;49.826;6.004;2023-02-23T07:06:48;123.73;;;20.00;;
14247;SDS011;7208;49.826;6.004;2023-02-23T07:09:14;86.40;;;19.67;;
14247;SDS011;7208;49.826;6.004;2023-02-23T07:11:41;49.47;;;18.13;;
14247;SDS011;7208;49.826;6.004;2023-02-23T07:14:09;86.47;;;19.20;;
14247;SDS011;7208;49.826;6.004;2023-02-23T07:16:35;34.93;;;16.73;;
14247;SDS011;7208;49.826;6.004;2023-02-23T07:19:03;45.00;;;16.27;;
14247;SDS011;7208;49.826;6.004;2023-02-23T07:21:30;66.60;;;17.73;;
14247;SDS011;7208;49.826;6.004;2023-02-23T07:23:56;105.50;;;18.97;;
14247;SDS011;7208;49.826;6.004;2023-02-23T07:26:22;64.77;;;16.83;;
14247;SDS011;7208;49.826;6.004;2023-02-23T07:28:48;83.60;;;17.87;;
14247;SDS011;7208;49.826;6.004;2023-02-23T07:31:14;111.87;;;19.47;;
14247;SDS011;7208;49.826;6.004;2023-02-23T07:33:40;41.63;;;17.20;;
14247;SDS011;7208;49.826;6.004;2023-02-23T07:36:06;42.97;;;17.37;;
14247;SDS011;7208;49.826;6.004;2023-02-23T07:38:32;51.03;;;17.23;;
14247;SDS011;7208;49.826;6.004;2023-02-23T07:40:59;50.10;;;18.30;;
14247;SDS011;7208;49.826;6.004;2023-02-23T07:43:25;46.67;;;20.10;;
14247;SDS011;7208;49.826;6.004;2023-02-23T07:45:51;61.07;;;19.30;;
14247;SDS011;7208;49.826;6.004;2023-02-23T07:48:17;86.47;;;20.83;;
14247;SDS011;7208;49.826;6.004;2023-02-23T07:50:43;48.83;;;18.50;;
14247;SDS011;7208;49.826;6.004;2023-02-23T07:53:09;39.10;;;18.80;;
14247;SDS011;7208;49.826;6.004;2023-02-23T07:55:35;45.80;;;19.70;;
14247;SDS011;7208;49.826;6.004;2023-02-23T07:58:04;31.37;;;16.57;;
14247;SDS011;7208;49.826;6.004;2023-02-23T08:00:31;42.90;;;19.23;;
14247;SDS011;7208;49.826;6.004;2023-02-23T08:02:57;38.13;;;18.17;;
14247;SDS011;7208;49.826;6.004;2023-02-23T08:05:25;40.83;;;19.47;;
14247;SDS011;7208;49.826;6.004;2023-02-23T08:07:52;34.83;;;19.70;;
14247;SDS011;7208;49.826;6.004;2023-02-23T08:10:18;31.17;;;18.63;;
14247;SDS011;7208;49.826;6.004;2023-02-23T08:12:44;31.33;;;19.10;;
14247;SDS011;7208;49.826;6.004;2023-02-23T08:15:10;33.17;;;19.50;;
14247;SDS011;7208;49.826;6.004;2023-02-23T08:17:36;30.60;;;19.23;;
14247;SDS011;7208;49.826;6.004;2023-02-23T08:20:04;30.47;;;19.70;;
14247;SDS011;7208;49.826;6.004;2023-02-23T08:22:30;32.03;;;19.40;;
14247;SDS011;7208;49.826;6.004;2023-02-23T08:24:56;33.87;;;20.40;;
14247;SDS011;7208;49.826;6.004;2023-02-23T08:27:22;34.17;;;21.33;;
14247;SDS011;7208;49.826;6.004;2023-02-23T08:29:48;35.43;;;19.97;;
14247;SDS011;7208;49.826;6.004;2023-02-23T08:32:16;31.87;;;19.33;;
14247;SDS011;7208;49.826;6.004;2023-02-23T08:34:42;31.57;;;20.57;;
14247;SDS011;7208;49.826;6.004;2023-02-23T08:37:09;29.57;;;20.13;;
14247;SDS011;7208;49.826;6.004;2023-02-23T08:39:35;34.47;;;21.07;;
14247;SDS011;7208;49.826;6.004;2023-02-23T08:42:02;32.53;;;21.47;;
14247;SDS011;7208;49.826;6.004;2023-02-23T08:44:28;30.57;;;20.33;;
14247;SDS011;7208;49.826;6.004;2023-02-23T08:46:54;29.07;;;19.17;;
14247;SDS011;7208;49.826;6.004;2023-02-23T08:49:22;32.10;;;20.73;;
14247;SDS011;7208;49.826;6.004;2023-02-23T08:51:48;37.77;;;22.03;;
14247;SDS011;7208;49.826;6.004;2023-02-23T08:54:14;29.03;;;20.40;;
14247;SDS011;7208;49.826;6.004;2023-02-23T08:56:41;34.43;;;22.17;;
14247;SDS011;7208;49.826;6.004;2023-02-23T08:59:07;32.47;;;22.33;;
14247;SDS011;7208;49.826;6.004;2023-02-23T09:01:33;33.60;;;22.37;;
14247;SDS011;7208;49.826;6.004;2023-02-23T09:04:01;34.47;;;22.67;;
14247;SDS011;7208;49.826;6.004;2023-02-23T09:06:27;27.00;;;20.50;;
14247;SDS011;7208;49.826;6.004;2023-02-23T09:08:53;27.17;;;21.00;;
14247;SDS011;7208;49.826;6.004;2023-02-23T09:11:20;29.33;;;21.77;;
14247;SDS011;7208;49.826;6.004;2023-02-23T09:13:46;30.43;;;21.17;;
14247;SDS011;7208;49.826;6.004;2023-02-23T09:16:12;25.97;;;20.77;;
14247;SDS011;7208;49.826;6.004;2023-02-23T09:18:38;30.87;;;22.73;;
14247;SDS011;7208;49.826;6.004;2023-02-23T09:21:05;25.40;;;20.77;;
14247;SDS011;7208;49.826;6.004;2023-02-23T09:23:33;28.47;;;19.33;;
14247;SDS011;7208;49.826;6.004;2023-02-23T09:26:05;27.30;;;20.83;;
14247;SDS011;7208;49.826;6.004;2023-02-23T09:28:32;27.43;;;22.07;;
14247;SDS011;7208;49.826;6.004;2023-02-23T09:31:08;27.20;;;19.87;;
14247;SDS011;7208;49.826;6.004;2023-02-23T09:33:35;27.17;;;20.17;;
14247;SDS011;7208;49.826;6.004;2023-02-23T09:36:11;28.23;;;22.57;;
14247;SDS011;7208;49.826;6.004;2023-02-23T09:38:40;27.47;;;20.93;;
14247;SDS011;7208;49.826;6.004;2023-02-23T09:43:56;25.57;;;20.70;;
14247;SDS011;7208;49.826;6.004;2023-02-23T09:49:10;26.30;;;21.60;;
14247;SDS011;7208;49.826;6.004;2023-02-23T09:51:39;28.27;;;22.70;;
14247;SDS011;7208;49.826;6.004;2023-02-23T09:54:08;24.00;;;20.33;;
14247;SDS011;7208;49.826;6.004;2023-02-23T09:56:36;24.23;;;21.60;;
14247;SDS011;7208;49.826;6.004;2023-02-23T09:59:08;26.70;;;22.40;;
14247;SDS011;7208;49.826;6.004;2023-02-23T10:05:21;22.93;;;20.43;;
14247;SDS011;7208;49.826;6.004;2023-02-23T10:10:11;21.50;;;19.23;;
14247;SDS011;7208;49.826;6.004;2023-02-23T10:22:49;23.63;;;19.87;;
14247;SDS011;7208;49.826;6.004;2023-02-23T10:25:20;19.83;;;17.77;;
14247;SDS011;7208;49.826;6.004;2023-02-23T10:27:48;21.83;;;19.47;;
14247;SDS011;7208;49.826;6.004;2023-02-23T10:30:24;22.50;;;18.77;;
14247;SDS011;7208;49.826;6.004;2023-02-23T10:35:17;19.67;;;17.63;;
14247;SDS011;7208;49.826;6.004;2023-02-23T10:37:45;23.63;;;17.27;;
14247;SDS011;7208;49.826;6.004;2023-02-23T10:40:14;21.50;;;17.70;;
14247;SDS011;7208;49.826;6.004;2023-02-23T10:42:41;21.67;;;17.63;;
14247;SDS011;7208;49.826;6.004;2023-02-23T10:45:14;22.23;;;17.83;;
14247;SDS011;7208;49.826;6.004;2023-02-23T10:47:48;17.53;;;15.63;;
14247;SDS011;7208;49.826;6.004;2023-02-23T10:50:14;16.70;;;14.80;;
14247;SDS011;7208;49.826;6.004;2023-02-23T10:52:44;16.67;;;14.30;;
14247;SDS011;7208;49.826;6.004;2023-02-23T10:55:23;16.03;;;14.37;;
14247;SDS011;7208;49.826;6.004;2023-02-23T10:57:59;18.43;;;15.13;;
14247;SDS011;7208;49.826;6.004;2023-02-23T11:00:26;19.50;;;14.00;;
14247;SDS011;7208;49.826;6.004;2023-02-23T11:02:56;26.70;;;15.10;;
14247;SDS011;7208;49.826;6.004;2023-02-23T11:06:05;22.17;;;17.10;;
14247;SDS011;7208;49.826;6.004;2023-02-23T11:13:25;16.97;;;15.43;;
14247;SDS011;7208;49.826;6.004;2023-02-23T11:16:02;15.90;;;14.30;;
14247;SDS011;7208;49.826;6.004;2023-02-23T11:18:29;17.03;;;13.77;;
14247;SDS011;7208;49.826;6.004;2023-02-23T11:20:55;16.60;;;14.90;;
14247;SDS011;7208;49.826;6.004;2023-02-23T11:23:22;16.00;;;13.03;;
14247;SDS011;7208;49.826;6.004;2023-02-23T11:25:53;14.10;;;12.67;;
14247;SDS011;7208;49.826;6.004;2023-02-23T11:28:24;13.73;;;11.50;;
14247;SDS011;7208;49.826;6.004;2023-02-23T11:30:54;16.27;;;12.23;;
14247;SDS011;7208;49.826;6.004;2023-02-23T11:33:23;13.43;;;12.13;;
14247;SDS011;7208;49.826;6.004;2023-02-23T11:35:56;14.27;;;12.73;;
14247;SDS011;7208;49.826;6.004;2023-02-23T11:38:29;12.80;;;11.33;;
14247;SDS011;7208;49.826;6.004;2023-02-23T11:41:00;11.53;;;10.43;;
14247;SDS011;7208;49.826;6.004;2023-02-23T11:43:26;12.30;;;11.10;;
14247;SDS011;7208;49.826;6.004;2023-02-23T11:45:53;10.93;;;9.83;;
14247;SDS011;7208;49.826;6.004;2023-02-23T11:48:21;9.53;;;8.63;;
14247;SDS011;7208;49.826;6.004;2023-02-23T11:50:50;9.97;;;8.97;;
14247;SDS011;7208;49.826;6.004;2023-02-23T11:53:18;11.87;;;10.27;;
14247;SDS011;7208;49.826;6.004;2023-02-23T11:55:49;9.80;;;8.90;;
14247;SDS011;7208;49.826;6.004;2023-02-23T12:01:01;9.33;;;8.37;;
14247;SDS011;7208;49.826;6.004;2023-02-23T12:03:28;9.03;;;8.23;;
14247;SDS011;7208;49.826;6.004;2023-02-23T12:05:55;9.23;;;8.33;;
14247;SDS011;7208;49.826;6.004;2023-02-23T12:11:10;8.80;;;8.00;;
14247;SDS011;7208;49.826;6.004;2023-02-23T12:13:39;7.40;;;6.40;;
14247;SDS011;7208;49.826;6.004;2023-02-23T12:16:22;7.33;;;6.67;;
14247;SDS011;7208;49.826;6.004;2023-02-23T12:21:22;6.97;;;6.37;;
14247;SDS011;7208;49.826;6.004;2023-02-23T12:23:49;5.93;;;5.43;;
14247;SDS011;7208;49.826;6.004;2023-02-23T12:26:18;5.90;;;5.37;;
14247;SDS011;7208;49.826;6.004;2023-02-23T12:31:24;6.80;;;6.10;;
14247;SDS011;7208;49.826;6.004;2023-02-23T12:33:52;5.70;;;5.30;;
14247;SDS011;7208;49.826;6.004;2023-02-23T12:36:39;5.90;;;5.33;;
14247;SDS011;7208;49.826;6.004;2023-02-23T12:44:34;5.77;;;5.33;;
14247;SDS011;7208;49.826;6.004;2023-02-23T12:48:05;5.47;;;5.07;;
14247;SDS011;7208;49.826;6.004;2023-02-23T12:50:05;6.07;;;5.57;;
14247;SDS011;7208;49.826;6.004;2023-02-23T12:52:48;7.37;;;6.77;;
14247;SDS011;7208;49.826;6.004;2023-02-23T12:55:15;7.87;;;7.17;;
14247;SDS011;7208;49.826;6.004;2023-02-23T12:57:53;8.87;;;8.07;;
14247;SDS011;7208;49.826;6.004;2023-02-23T13:13:42;5.10;;;4.70;;
14247;SDS011;7208;49.826;6.004;2023-02-23T13:16:20;4.90;;;4.50;;
14247;SDS011;7208;49.826;6.004;2023-02-23T13:18:54;6.33;;;5.83;;
14247;SDS011;7208;49.826;6.004;2023-02-23T13:21:26;5.50;;;5.10;;
14247;SDS011;7208;49.826;6.004;2023-02-23T13:26:42;5.90;;;5.40;;
14247;SDS011;7208;49.826;6.004;2023-02-23T13:29:15;4.93;;;4.53;;
14247;SDS011;7208;49.826;6.004;2023-02-23T13:31:46;9.37;;;8.27;;
14247;SDS011;7208;49.826;6.004;2023-02-23T13:34:15;5.57;;;5.13;;
14247;SDS011;7208;49.826;6.004;2023-02-23T13:36:44;4.77;;;4.37;;
14247;SDS011;7208;49.826;6.004;2023-02-23T13:44:15;3.00;;;2.80;;
14247;SDS011;7208;49.826;6.004;2023-02-23T13:46:47;3.30;;;3.00;;
14247;SDS011;7208;49.826;6.004;2023-02-23T13:51:56;3.93;;;3.63;;
14247;SDS011;7208;49.826;6.004;2023-02-23T13:54:29;4.13;;;3.83;;
14247;SDS011;7208;49.826;6.004;2023-02-23T13:56:57;3.07;;;2.87;;
14247;SDS011;7208;49.826;6.004;2023-02-23T13:59:25;3.83;;;3.53;;
14247;SDS011;7208;49.826;6.004;2023-02-23T14:01:53;2.80;;;2.60;;
14247;SDS011;7208;49.826;6.004;2023-02-23T14:04:35;3.63;;;3.30;;
14247;SDS011;7208;49.826;6.004;2023-02-23T14:09:35;11.07;;;8.50;;
14247;SDS011;7208;49.826;6.004;2023-02-23T14:14:43;3.60;;;3.30;;
14247;SDS011;7208;49.826;6.004;2023-02-23T14:19:37;5.23;;;4.80;;
14247;SDS011;7208;49.826;6.004;2023-02-23T14:22:04;4.73;;;3.90;;
14247;SDS011;7208;49.826;6.004;2023-02-23T14:24:34;7.97;;;7.27;;
14247;SDS011;7208;49.826;6.004;2023-02-23T14:29:39;7.37;;;6.67;;
14247;SDS011;7208;49.826;6.004;2023-02-23T14:37:17;4.90;;;4.40;;
14247;SDS011;7208;49.826;6.004;2023-02-23T14:39:47;4.80;;;4.30;;
14247;SDS011;7208;49.826;6.004;2023-02-23T14:42:18;5.20;;;4.70;;
14247;SDS011;7208;49.826;6.004;2023-02-23T14:44:45;7.03;;;4.63;;
14247;SDS011;7208;49.826;6.004;2023-02-23T14:47:16;4.70;;;4.13;;
14247;SDS011;7208;49.826;6.004;2023-02-23T14:49:44;4.83;;;3.80;;
14247;SDS011;7208;49.826;6.004;2023-02-23T14:54:48;3.53;;;3.20;;
14247;SDS011;7208;49.826;6.004;2023-02-23T14:57:19;4.20;;;3.83;;
14247;SDS011;7208;49.826;6.004;2023-02-23T14:59:50;3.13;;;2.83;;
14247;SDS011;7208;49.826;6.004;2023-02-23T15:04:43;3.73;;;3.43;;
14247;SDS011;7208;49.826;6.004;2023-02-23T15:09:48;4.57;;;4.07;;
14247;SDS011;7208;49.826;6.004;2023-02-23T15:12:17;6.70;;;4.47;;
14247;SDS011;7208;49.826;6.004;2023-02-23T15:14:44;6.03;;;4.47;;
14247;SDS011;7208;49.826;6.004;2023-02-23T15:17:15;6.10;;;5.50;;
14247;SDS011;7208;49.826;6.004;2023-02-23T15:19:42;7.97;;;6.83;;
14247;SDS011;7208;49.826;6.004;2023-02-23T15:22:13;7.23;;;6.27;;
14247;SDS011;7208;49.826;6.004;2023-02-23T15:24:43;11.70;;;8.37;;
14247;SDS011;7208;49.826;6.004;2023-02-23T15:27:16;11.07;;;7.87;;
14247;SDS011;7208;49.826;6.004;2023-02-23T15:29:42;8.63;;;7.63;;
14247;SDS011;7208;49.826;6.004;2023-02-23T15:32:12;7.80;;;6.97;;
14247;SDS011;7208;49.826;6.004;2023-02-23T15:34:39;8.67;;;6.23;;
14247;SDS011;7208;49.826;6.004;2023-02-23T15:37:14;6.33;;;5.63;;
14247;SDS011;7208;49.826;6.004;2023-02-23T15:42:43;5.20;;;4.63;;
14247;SDS011;7208;49.826;6.004;2023-02-23T15:45:15;5.63;;;5.03;;
14247;SDS011;7208;49.826;6.004;2023-02-23T15:47:44;7.20;;;4.97;;
14247;SDS011;7208;49.826;6.004;2023-02-23T15:50:17;4.00;;;3.60;;
14247;SDS011;7208;49.826;6.004;2023-02-23T15:52:45;4.90;;;4.40;;
14247;SDS011;7208;49.826;6.004;2023-02-23T15:55:14;6.03;;;5.13;;
14247;SDS011;7208;49.826;6.004;2023-02-23T16:00:13;4.50;;;4.10;;
14247;SDS011;7208;49.826;6.004;2023-02-23T16:02:43;4.77;;;4.37;;
14247;SDS011;7208;49.826;6.004;2023-02-23T16:05:20;5.23;;;4.47;;
14247;SDS011;7208;49.826;6.004;2023-02-23T16:07:46;5.53;;;4.93;;
14247;SDS011;7208;49.826;6.004;2023-02-23T16:10:23;5.40;;;4.70;;
14247;SDS011;7208;49.826;6.004;2023-02-23T16:12:50;6.73;;;5.50;;
14247;SDS011;7208;49.826;6.004;2023-02-23T16:15:22;6.10;;;5.23;;
14247;SDS011;7208;49.826;6.004;2023-02-23T16:17:55;5.30;;;4.47;;
14247;SDS011;7208;49.826;6.004;2023-02-23T16:22:47;6.00;;;5.03;;
14247;SDS011;7208;49.826;6.004;2023-02-23T16:25:18;6.30;;;5.57;;
14247;SDS011;7208;49.826;6.004;2023-02-23T16:27:46;5.47;;;4.73;;
14247;SDS011;7208;49.826;6.004;2023-02-23T16:30:19;5.90;;;5.40;;
14247;SDS011;7208;49.826;6.004;2023-02-23T16:32:48;6.03;;;4.90;;
14247;SDS011;7208;49.826;6.004;2023-02-23T16:35:16;6.20;;;5.00;;
14247;SDS011;7208;49.826;6.004;2023-02-23T16:37:49;8.33;;;5.73;;
14247;SDS011;7208;49.826;6.004;2023-02-23T16:40:17;6.50;;;4.93;;
14247;SDS011;7208;49.826;6.004;2023-02-23T16:42:43;5.60;;;5.10;;
14247;SDS011;7208;49.826;6.004;2023-02-23T16:45:13;5.50;;;4.97;;
14247;SDS011;7208;49.826;6.004;2023-02-23T16:47:41;5.93;;;5.03;;
14247;SDS011;7208;49.826;6.004;2023-02-23T16:50:26;5.80;;;5.30;;
14247;SDS011;7208;49.826;6.004;2023-02-23T16:52:52;6.20;;;5.17;;
14247;SDS011;7208;49.826;6.004;2023-02-23T16:55:23;6.33;;;5.20;;
14247;SDS011;7208;49.826;6.004;2023-02-23T16:57:49;5.47;;;4.73;;
14247;SDS011;7208;49.826;6.004;2023-02-23T17:00:26;5.50;;;4.57;;
14247;SDS011;7208;49.826;6.004;2023-02-23T17:02:53;3.53;;;3.23;;
14247;SDS011;7208;49.826;6.004;2023-02-23T17:05:20;4.43;;;4.03;;
14247;SDS011;7208;49.826;6.004;2023-02-23T17:07:48;4.33;;;3.63;;
14247;SDS011;7208;49.826;6.004;2023-02-23T17:10:22;4.00;;;3.60;;
14247;SDS011;7208;49.826;6.004;2023-02-23T17:12:52;4.27;;;3.53;;
14247;SDS011;7208;49.826;6.004;2023-02-23T17:15:18;4.40;;;3.70;;
14247;SDS011;7208;49.826;6.004;2023-02-23T17:17:45;3.70;;;3.40;;
14247;SDS011;7208;49.826;6.004;2023-02-23T17:20:11;4.47;;;3.50;;
14247;SDS011;7208;49.826;6.004;2023-02-23T17:22:42;3.90;;;3.60;;